Time;durP1;ratioP1;P1;durP2;ratioP2;P2;SDS_P1;SDS_P2;PMS_P1;PMS_P2;Temp;Humidity;BMP_temperature;BMP_pressure;BME280_temperature;BME280_humidity;BME280_pressure;Samples;Min_cycle;Max_cycle;Signal;HPM_P1;HPM_P2
2023/03/18 00:01:36;;;;;;;761.10;713.28;;;6.60;77.90;;;;;;5034814;28;20076;-77
2023/03/18 00:04:03;;;;;;;377.80;336.55;;;6.40;78.20;;;;;;5018471;28;20724;-75
2023/03/18 00:06:29;;;;;;;1140.85;626.45;;;6.60;77.30;;;;;;5037173;28;20112;-76
2023/03/18 00:08:56;;;;;;;759.40;699.42;;;6.60;77.60;;;;;;5035378;28;20152;-75
2023/03/18 00:11:21;;;;;;;1601.93;842.85;;;6.50;77.30;;;;;;5037366;28;20031;-76
2023/03/18 00:13:48;;;;;;;659.90;620.75;;;6.50;77.00;;;;;;5031470;28;20037;-77
2023/03/18 00:16:14;;;;;;;1999.90;999.90;;;6.60;76.30;;;;;;5035425;28;20553;-75
2023/03/18 00:18:41;;;;;;;1514.55;758.38;;;6.80;75.40;;;;;;5036630;28;20083;-75
2023/03/18 00:21:08;;;;;;;1999.90;999.90;;;6.90;75.00;;;;;;5043792;28;20095;-75
2023/03/18 00:23:34;;;;;;;167.77;139.77;;;6.90;74.90;;;;;;5057888;28;20052;-74
2023/03/18 00:26:00;;;;;;;1531.85;780.17;;;7.00;74.20;;;;;;5055032;28;20052;-75
2023/03/18 00:28:27;;;;;;;1999.90;999.90;;;7.00;73.80;;;;;;5052592;28;20120;-75
2023/03/18 00:30:53;;;;;;;1999.90;999.90;;;7.20;72.90;;;;;;5053101;28;20156;-76
2023/03/18 00:33:19;;;;;;;1999.90;999.90;;;7.30;71.60;;;;;;5057213;28;20036;-77
2023/03/18 00:35:46;;;;;;;1999.90;999.90;;;7.30;71.10;;;;;;5055209;28;20040;-76
2023/03/18 00:38:19;;;;;;;1999.90;999.90;;;7.40;70.60;;;;;;5054173;28;20013;-76
2023/03/18 00:40:52;;;;;;;1999.90;999.90;;;7.40;70.20;;;;;;5055498;28;20024;-76
2023/03/18 00:43:21;;;;;;;59.08;56.78;;;7.40;69.80;;;;;;5053566;28;20509;-77
2023/03/18 00:45:49;;;;;;;1999.90;999.90;;;7.50;68.90;;;;;;5056806;28;20056;-77
2023/03/18 00:48:16;;;;;;;56.13;53.83;;;7.50;68.90;;;;;;5056834;28;20035;-76
2023/03/18 00:50:43;;;;;;;1999.90;999.90;;;7.50;69.10;;;;;;5055450;28;20511;-78
2023/03/18 00:53:10;;;;;;;26.13;25.17;;;7.50;68.60;;;;;;5054827;28;20555;-76
2023/03/18 00:55:36;;;;;;;1999.90;999.90;;;7.70;67.90;;;;;;5054473;28;20124;-75
2023/03/18 00:58:02;;;;;;;47.03;45.28;;;7.90;66.50;;;;;;5054767;28;20119;-77
2023/03/18 01:00:28;;;;;;;1509.93;759.53;;;8.10;65.60;;;;;;5057104;28;20048;-77
2023/03/18 01:02:55;;;;;;;1506.50;756.25;;;8.10;65.20;;;;;;5052422;28;20518;-78
2023/03/18 01:05:21;;;;;;;43.00;41.40;;;8.30;63.80;;;;;;5048847;28;20033;-76
2023/03/18 01:07:48;;;;;;;43.50;41.90;;;8.30;63.60;;;;;;5052055;28;20363;-79
2023/03/18 01:10:15;;;;;;;1509.82;759.45;;;8.50;62.50;;;;;;5058503;28;20298;-78
2023/03/18 01:12:42;;;;;;;46.35;44.50;;;8.50;62.10;;;;;;5051240;28;20030;-79
2023/03/18 01:15:13;;;;;;;47.42;45.70;;;8.50;62.00;;;;;;5052989;28;20120;-80
2023/03/18 01:17:39;;;;;;;44.50;42.83;;;8.50;62.00;;;;;;5051234;28;20498;-81
2023/03/18 01:20:05;;;;;;;48.97;46.75;;;8.60;61.50;;;;;;5054078;28;20033;-76
2023/03/18 01:22:31;;;;;;;44.25;42.42;;;8.70;61.50;;;;;;5053520;28;20060;-81
2023/03/18 01:24:57;;;;;;;48.80;47.00;;;8.60;60.80;;;;;;5051613;28;20029;-78
2023/03/18 01:27:23;;;;;;;45.15;43.35;;;8.70;60.40;;;;;;5056113;28;20020;-78
2023/03/18 01:29:49;;;;;;;44.05;42.40;;;8.70;60.30;;;;;;5055437;28;20497;-78
2023/03/18 01:32:15;;;;;;;41.03;39.45;;;8.60;60.50;;;;;;5053626;28;20037;-80
2023/03/18 01:34:40;;;;;;;42.85;41.25;;;8.70;60.10;;;;;;5057909;28;20062;-78
2023/03/18 01:37:06;;;;;;;45.60;43.95;;;8.70;59.70;;;;;;5051938;28;20071;-80
2023/03/18 01:39:33;;;;;;;46.50;44.80;;;8.80;59.20;;;;;;5052838;28;20045;-78
2023/03/18 01:41:59;;;;;;;44.78;43.08;;;8.80;59.60;;;;;;5049441;28;20051;-78
2023/03/18 01:44:26;;;;;;;43.13;41.45;;;8.70;59.60;;;;;;5052877;28;20032;-78
2023/03/18 01:46:52;;;;;;;42.28;40.72;;;8.70;59.70;;;;;;5054406;28;20513;-82
2023/03/18 01:49:23;;;;;;;41.22;39.63;;;8.70;59.60;;;;;;5057941;28;20028;-80
2023/03/18 01:51:56;;;;;;;39.08;37.47;;;8.70;59.30;;;;;;5056129;28;20020;-81
2023/03/18 01:54:23;;;;;;;40.03;38.50;;;8.50;60.10;;;;;;5052760;28;20036;-80
2023/03/18 01:56:51;;;;;;;41.45;39.85;;;8.40;60.80;;;;;;5035267;28;20040;-80
2023/03/18 01:59:20;;;;;;;38.55;37.15;;;8.30;61.30;;;;;;5055673;28;20055;-78
2023/03/18 02:01:57;;;;;;;39.20;37.80;;;8.30;61.20;;;;;;5053908;28;20681;-80
2023/03/18 02:04:29;;;;;;;39.28;37.70;;;8.20;61.50;;;;;;5053538;28;20032;-77
2023/03/18 02:06:57;;;;;;;38.97;37.47;;;8.20;60.80;;;;;;5052450;28;20037;-80
2023/03/18 02:09:23;;;;;;;40.85;39.35;;;8.20;61.20;;;;;;5051660;28;20047;-77
2023/03/18 02:11:50;;;;;;;37.58;36.15;;;8.10;61.40;;;;;;5058408;28;20033;-80
2023/03/18 02:14:19;;;;;;;38.00;36.60;;;8.30;60.50;;;;;;5053772;28;20101;-79
2023/03/18 02:17:11;;;;;;;39.45;37.95;;;8.40;60.00;;;;;;5052006;28;20737;-81
2023/03/18 02:20:07;;;;;;;34.80;33.53;;;8.60;59.00;;;;;;5050383;28;20070;-81
2023/03/18 02:22:40;;;;;;;36.28;34.90;;;8.60;58.50;;;;;;5051677;28;20139;-78
2023/03/18 02:25:20;;;;;;;35.60;34.20;;;8.60;58.30;;;;;;5052433;28;20021;-79
2023/03/18 02:27:53;;;;;;;36.70;35.30;;;8.50;59.20;;;;;;5052897;28;20032;-82
2023/03/18 02:30:24;;;;;;;38.13;36.67;;;8.20;60.40;;;;;;5053496;28;20024;-80
2023/03/18 02:32:51;;;;;;;37.42;35.92;;;8.00;61.60;;;;;;5057543;28;20104;-78
2023/03/18 02:35:17;;;;;;;38.92;37.53;;;7.80;63.30;;;;;;5057041;28;20049;-80
2023/03/18 02:37:43;;;;;;;37.67;36.17;;;7.90;62.60;;;;;;5058612;28;20039;-78
2023/03/18 02:40:19;;;;;;;38.38;36.90;;;8.00;62.90;;;;;;5052091;28;20037;-81
2023/03/18 02:42:46;;;;;;;39.90;38.13;;;7.90;63.20;;;;;;5058252;28;20487;-81
2023/03/18 02:45:32;;;;;;;40.25;38.75;;;7.90;63.00;;;;;;5053377;28;20039;-79
2023/03/18 02:47:58;;;;;;;36.67;35.30;;;7.90;63.30;;;;;;5053537;28;20498;-80
2023/03/18 02:50:24;;;;;;;38.47;37.03;;;7.80;63.80;;;;;;5052651;28;20033;-84
2023/03/18 02:52:50;;;;;;;37.72;36.20;;;7.80;64.00;;;;;;5055344;28;20032;-81
2023/03/18 02:55:16;;;;;;;38.60;37.08;;;7.70;64.40;;;;;;5051716;28;20029;-79
2023/03/18 02:57:42;;;;;;;41.53;40.00;;;7.70;64.70;;;;;;5055286;28;20029;-82
2023/03/18 03:00:09;;;;;;;46.15;43.95;;;7.70;65.40;;;;;;5053453;28;20541;-78
2023/03/18 03:02:35;;;;;;;48.88;46.88;;;7.60;65.70;;;;;;5037312;28;20045;-83
2023/03/18 03:05:00;;;;;;;47.75;45.75;;;7.60;66.20;;;;;;5061220;28;20087;-79
2023/03/18 03:07:26;;;;;;;49.03;46.92;;;7.40;67.40;;;;;;5063039;28;20091;-78
2023/03/18 03:09:52;;;;;;;49.78;47.88;;;7.30;68.60;;;;;;5057742;28;20042;-75
2023/03/18 03:12:18;;;;;;;50.28;48.20;;;7.20;68.90;;;;;;5057853;28;20067;-76
2023/03/18 03:14:44;;;;;;;49.70;47.80;;;7.20;69.10;;;;;;5054189;28;20057;-76
2023/03/18 03:17:10;;;;;;;50.05;47.85;;;7.10;69.60;;;;;;5056343;28;20041;-75
2023/03/18 03:19:36;;;;;;;50.75;48.55;;;7.00;69.80;;;;;;5057010;28;20112;-75
2023/03/18 03:22:01;;;;;;;51.42;49.13;;;7.00;70.50;;;;;;5059562;28;20410;-76
2023/03/18 03:24:27;;;;;;;52.17;50.08;;;6.90;71.00;;;;;;5055791;28;20025;-76
2023/03/18 03:26:53;;;;;;;54.20;52.00;;;6.80;71.60;;;;;;5060239;28;20056;-76
2023/03/18 03:29:19;;;;;;;52.22;50.13;;;6.70;72.00;;;;;;5055887;28;20834;-78
2023/03/18 03:31:45;;;;;;;50.15;48.15;;;6.60;72.20;;;;;;5057325;28;20033;-77
2023/03/18 03:34:10;;;;;;;49.33;47.35;;;6.50;72.60;;;;;;5037619;28;20147;-77
2023/03/18 03:36:36;;;;;;;49.03;46.92;;;6.50;73.00;;;;;;5057694;28;20040;-77
2023/03/18 03:39:02;;;;;;;46.50;43.80;;;6.50;73.20;;;;;;5056421;28;20048;-75
2023/03/18 03:41:29;;;;;;;42.97;41.28;;;6.60;72.90;;;;;;5057600;28;20037;-76
2023/03/18 03:43:54;;;;;;;44.10;42.13;;;6.60;72.90;;;;;;5054403;28;20053;-76
2023/03/18 03:46:20;;;;;;;44.00;42.10;;;6.50;73.20;;;;;;5057370;28;20072;-75
2023/03/18 03:48:46;;;;;;;42.97;41.28;;;6.50;72.80;;;;;;5058708;28;20033;-79
2023/03/18 03:51:13;;;;;;;43.03;41.13;;;6.50;73.00;;;;;;5055430;28;20025;-76
2023/03/18 03:53:39;;;;;;;41.10;39.47;;;6.50;73.40;;;;;;5057370;28;20503;-75
2023/03/18 03:56:07;;;;;;;39.35;37.65;;;6.50;73.30;;;;;;5055713;28;20036;-75
2023/03/18 03:58:34;;;;;;;40.47;38.78;;;6.40;74.10;;;;;;5057372;28;20058;-75
2023/03/18 04:01:00;;;;;;;41.70;39.90;;;6.30;74.20;;;;;;5051884;28;20075;-75
2023/03/18 04:03:27;;;;;;;41.75;39.95;;;6.20;74.60;;;;;;5057492;28;20043;-76
2023/03/18 04:05:52;;;;;;;40.17;38.47;;;6.10;75.60;;;;;;5057311;28;20039;-78
2023/03/18 04:08:18;;;;;;;41.83;39.92;;;6.00;75.70;;;;;;5054981;28;20028;-76
2023/03/18 04:10:44;;;;;;;42.00;40.10;;;6.10;75.80;;;;;;5056064;28;20506;-75
2023/03/18 04:13:10;;;;;;;40.80;39.08;;;6.10;75.50;;;;;;5055701;28;20503;-76
2023/03/18 04:15:36;;;;;;;40.63;38.97;;;6.10;75.70;;;;;;5055101;28;20040;-77
2023/03/18 04:18:05;;;;;;;42.42;40.63;;;6.10;75.70;;;;;;5058994;28;20495;-75
2023/03/18 04:20:33;;;;;;;42.83;41.08;;;6.10;75.60;;;;;;5054374;28;20047;-75
2023/03/18 04:22:59;;;;;;;41.15;39.35;;;6.20;75.40;;;;;;5058168;28;20033;-75
2023/03/18 04:25:25;;;;;;;42.63;40.85;;;6.20;75.50;;;;;;5060008;28;20045;-76
2023/03/18 04:27:51;;;;;;;41.65;39.75;;;6.10;75.30;;;;;;5055955;28;20028;-75
2023/03/18 04:30:19;;;;;;;43.22;41.40;;;6.20;75.10;;;;;;5056524;28;20021;-76
2023/03/18 04:32:45;;;;;;;45.47;43.58;;;6.10;75.30;;;;;;5057858;28;20033;-76
2023/03/18 04:35:11;;;;;;;46.50;44.58;;;6.20;74.90;;;;;;5055035;28;20504;-75
2023/03/18 04:37:39;;;;;;;46.38;44.42;;;6.10;74.90;;;;;;5059771;28;20029;-75
2023/03/18 04:40:05;;;;;;;46.95;44.95;;;6.00;75.20;;;;;;5051304;28;20045;-76
2023/03/18 04:42:31;;;;;;;46.05;44.15;;;5.90;75.90;;;;;;5055314;28;20139;-75
2023/03/18 04:44:56;;;;;;;48.67;46.67;;;5.90;76.30;;;;;;5053354;28;20749;-75
2023/03/18 04:47:22;;;;;;;42.75;41.03;;;5.80;76.40;;;;;;5059042;28;20037;-74
2023/03/18 04:49:48;;;;;;;46.72;44.70;;;6.00;76.80;;;;;;5054080;28;20068;-76
2023/03/18 04:52:14;;;;;;;43.25;41.45;;;6.00;76.70;;;;;;5060033;28;20380;-77
2023/03/18 04:54:39;;;;;;;44.08;42.28;;;6.00;76.50;;;;;;5055779;28;20044;-76
2023/03/18 04:57:06;;;;;;;42.72;40.65;;;5.90;76.80;;;;;;5058602;28;20040;-75
2023/03/18 04:59:32;;;;;;;45.17;42.95;;;5.80;77.40;;;;;;5057226;28;20043;-75
2023/03/18 05:01:58;;;;;;;44.28;42.28;;;5.70;77.80;;;;;;5050616;28;20037;-76
2023/03/18 05:04:24;;;;;;;43.33;41.58;;;5.60;78.30;;;;;;5047215;28;20247;-75
2023/03/18 05:06:51;;;;;;;41.50;39.60;;;5.40;78.60;;;;;;5049762;28;20529;-75
2023/03/18 05:09:17;;;;;;;44.90;43.00;;;5.30;79.70;;;;;;5047883;28;20033;-75
2023/03/18 05:11:44;;;;;;;43.38;41.38;;;5.30;79.90;;;;;;5056824;28;20102;-76
2023/03/18 05:14:09;;;;;;;43.28;41.38;;;5.50;79.50;;;;;;5054090;28;20041;-76
2023/03/18 05:16:35;;;;;;;41.08;39.38;;;5.40;79.40;;;;;;5059565;28;20052;-75
2023/03/18 05:19:02;;;;;;;42.40;40.60;;;5.20;79.40;;;;;;5049951;28;20068;-77
2023/03/18 05:21:27;;;;;;;42.63;40.58;;;5.10;80.20;;;;;;5060519;28;20055;-75
2023/03/18 05:23:53;;;;;;;43.45;41.33;;;5.00;80.70;;;;;;5055399;28;20131;-75
2023/03/18 05:26:19;;;;;;;42.15;40.13;;;5.00;81.10;;;;;;5055877;28;20390;-76
2023/03/18 05:28:44;;;;;;;42.05;40.25;;;5.00;81.50;;;;;;5044158;28;20043;-75
2023/03/18 05:31:10;;;;;;;39.95;38.30;;;5.00;81.60;;;;;;5058510;28;20036;-76
2023/03/18 05:33:36;;;;;;;39.97;37.97;;;4.90;81.60;;;;;;5052447;28;20033;-75
2023/03/18 05:36:02;;;;;;;39.00;37.08;;;4.90;81.80;;;;;;5055908;28;20760;-76
2023/03/18 05:38:28;;;;;;;38.05;36.35;;;4.80;81.90;;;;;;5054898;28;20045;-74
2023/03/18 05:40:54;;;;;;;37.70;35.97;;;4.80;82.10;;;;;;5061407;28;20052;-77
2023/03/18 05:43:20;;;;;;;35.92;34.45;;;4.80;82.50;;;;;;5047977;28;20078;-75
2023/03/18 05:45:47;;;;;;;37.67;35.80;;;4.70;82.50;;;;;;5057285;28;20036;-75
2023/03/18 05:48:13;;;;;;;38.47;36.65;;;4.70;83.00;;;;;;5050005;28;20125;-76
2023/03/18 05:50:40;;;;;;;41.40;39.50;;;4.80;83.00;;;;;;5057433;28;20033;-75
2023/03/18 05:53:08;;;;;;;41.03;39.17;;;4.90;82.80;;;;;;5054527;28;20029;-75
2023/03/18 05:55:34;;;;;;;41.65;39.78;;;5.00;82.70;;;;;;5055995;28;20124;-75
2023/03/18 05:58:00;;;;;;;39.78;38.08;;;5.00;82.60;;;;;;5054128;28;20056;-76
2023/03/18 06:00:28;;;;;;;42.42;40.45;;;5.00;82.10;;;;;;5049679;28;20025;-74
2023/03/18 06:02:55;;;;;;;42.30;40.33;;;5.10;82.50;;;;;;5038727;28;20056;-75
2023/03/18 06:05:21;;;;;;;41.33;39.45;;;5.20;81.90;;;;;;5050963;28;20066;-75
2023/03/18 06:07:47;;;;;;;41.42;39.63;;;5.20;82.00;;;;;;5050352;28;20036;-75
2023/03/18 06:10:14;;;;;;;41.78;39.80;;;5.20;82.00;;;;;;5057235;28;20048;-74
2023/03/18 06:12:43;;;;;;;43.20;41.38;;;5.20;82.50;;;;;;5053849;28;20032;-75
2023/03/18 06:15:10;;;;;;;42.85;40.88;;;5.40;81.60;;;;;;5053693;28;20045;-76
2023/03/18 06:17:37;;;;;;;42.08;40.17;;;5.40;81.60;;;;;;5039036;28;20036;-75
2023/03/18 06:20:05;;;;;;;41.38;39.47;;;5.40;81.90;;;;;;5053986;28;20112;-75
2023/03/18 06:22:31;;;;;;;40.30;38.60;;;5.40;81.90;;;;;;5051267;28;20049;-75
2023/03/18 06:24:57;;;;;;;41.92;40.20;;;5.40;82.10;;;;;;5055122;28;20029;-77
2023/03/18 06:27:23;;;;;;;42.08;40.28;;;5.40;82.40;;;;;;5051536;28;20514;-75
2023/03/18 06:29:48;;;;;;;44.65;42.53;;;5.40;82.20;;;;;;5054386;28;20029;-74
2023/03/18 06:32:14;;;;;;;44.33;42.42;;;5.50;82.00;;;;;;5048759;28;20091;-75
2023/03/18 06:34:40;;;;;;;43.45;41.70;;;5.50;81.40;;;;;;5050920;28;20112;-74
2023/03/18 06:37:06;;;;;;;42.40;40.40;;;5.50;81.10;;;;;;5051707;28;20043;-75
2023/03/18 06:39:33;;;;;;;41.53;39.83;;;5.60;81.00;;;;;;5058230;28;20068;-76
2023/03/18 06:41:59;;;;;;;44.35;42.35;;;5.70;81.00;;;;;;5057860;28;20021;-74
2023/03/18 06:44:25;;;;;;;43.22;41.25;;;5.80;80.70;;;;;;5054904;28;20086;-75
2023/03/18 06:46:51;;;;;;;45.70;43.42;;;5.80;80.50;;;;;;5058899;28;20119;-76
2023/03/18 06:49:16;;;;;;;49.53;47.28;;;5.70;80.60;;;;;;5058866;28;20429;-75
2023/03/18 06:51:42;;;;;;;46.80;44.88;;;5.70;81.20;;;;;;5058023;28;20129;-75
2023/03/18 06:54:08;;;;;;;46.53;44.60;;;5.70;81.40;;;;;;5055799;28;20577;-74
2023/03/18 06:56:38;;;;;;;45.90;43.83;;;5.70;81.70;;;;;;5053655;28;20041;-75
2023/03/18 06:59:06;;;;;;;45.47;43.58;;;5.80;81.70;;;;;;5053541;28;20404;-76
2023/03/18 07:01:32;;;;;;;47.45;45.38;;;5.90;81.30;;;;;;5058229;28;20029;-75
2023/03/18 07:03:59;;;;;;;42.55;40.60;;;6.10;81.30;;;;;;5054031;28;20060;-75
2023/03/18 07:06:26;;;;;;;42.53;40.72;;;6.20;80.10;;;;;;5058652;28;20058;-75
2023/03/18 07:08:53;;;;;;;42.38;40.58;;;6.40;79.00;;;;;;5058164;28;20028;-78
2023/03/18 07:11:19;;;;;;;44.03;42.17;;;6.70;78.40;;;;;;5056673;28;20035;-76
2023/03/18 07:13:45;;;;;;;42.75;40.80;;;6.80;78.50;;;;;;5056040;28;20033;-75
2023/03/18 07:16:10;;;;;;;41.60;39.70;;;6.90;78.50;;;;;;5059166;28;20037;-76
2023/03/18 07:18:41;;;;;;;40.05;38.30;;;7.00;78.00;;;;;;5068047;28;20032;-79
2023/03/18 07:21:08;;;;;;;41.25;39.35;;;7.10;77.80;;;;;;5053778;28;20045;-75
2023/03/18 07:23:34;;;;;;;37.28;35.42;;;7.20;77.80;;;;;;5058135;28;20029;-75
2023/03/18 07:26:00;;;;;;;36.95;35.30;;;7.30;77.30;;;;;;5055138;28;20028;-76
2023/03/18 07:28:25;;;;;;;36.90;35.22;;;7.50;77.00;;;;;;5057659;28;20028;-76
2023/03/18 07:30:51;;;;;;;41.47;39.60;;;7.50;76.40;;;;;;5060036;28;20060;-75
2023/03/18 07:33:16;;;;;;;37.58;35.88;;;7.60;76.10;;;;;;5058299;28;20131;-76
2023/03/18 07:35:42;;;;;;;36.88;34.97;;;7.70;75.70;;;;;;5058750;28;20567;-75
2023/03/18 07:38:08;;;;;;;37.55;35.72;;;7.70;76.40;;;;;;5056176;28;20394;-75
2023/03/18 07:40:34;;;;;;;34.53;33.00;;;7.80;76.00;;;;;;5057803;28;20593;-74
2023/03/18 07:43:00;;;;;;;36.60;34.90;;;7.90;75.50;;;;;;5056138;28;20039;-75
2023/03/18 07:45:27;;;;;;;38.95;37.20;;;8.00;74.40;;;;;;5042011;28;20028;-80
2023/03/18 07:47:53;;;;;;;43.85;41.95;;;8.20;73.90;;;;;;5054873;28;20033;-77
2023/03/18 07:50:18;;;;;;;38.67;36.70;;;8.40;74.00;;;;;;5057514;28;20032;-76
2023/03/18 07:52:44;;;;;;;36.75;35.15;;;8.60;74.20;;;;;;5052865;28;20044;-77
2023/03/18 07:55:10;;;;;;;40.13;38.40;;;8.70;73.20;;;;;;5055207;28;20040;-79
2023/03/18 07:57:37;;;;;;;39.92;38.22;;;8.90;71.60;;;;;;5058707;28;20025;-78
2023/03/18 08:00:05;;;;;;;37.40;35.70;;;9.10;72.60;;;;;;5058019;28;20033;-84
2023/03/18 08:02:30;;;;;;;38.88;36.88;;;9.10;71.20;;;;;;5054045;28;20039;-84
2023/03/18 08:04:56;;;;;;;37.90;36.00;;;9.30;71.10;;;;;;5061599;28;20029;-84
2023/03/18 08:07:23;;;;;;;37.28;35.58;;;9.40;71.20;;;;;;5055080;28;20522;-81
2023/03/18 08:09:49;;;;;;;41.28;39.47;;;9.50;71.00;;;;;;5061364;28;20052;-80
2023/03/18 08:12:15;;;;;;;36.55;34.90;;;9.60;70.00;;;;;;5055737;28;20112;-79
2023/03/18 08:14:42;;;;;;;35.08;33.58;;;9.60;69.90;;;;;;5057548;28;20491;-80
2023/03/18 08:17:09;;;;;;;36.38;34.75;;;9.80;70.80;;;;;;5056303;28;20114;-79
2023/03/18 08:19:35;;;;;;;37.65;35.92;;;9.80;68.90;;;;;;5043474;28;20056;-82
2023/03/18 08:22:01;;;;;;;38.75;37.05;;;9.90;68.70;;;;;;5053661;28;20094;-81
2023/03/18 08:24:26;;;;;;;36.45;34.72;;;10.10;69.80;;;;;;5062150;28;20040;-78
2023/03/18 08:26:52;;;;;;;37.75;36.13;;;10.20;68.60;;;;;;5052429;28;20090;-80
2023/03/18 08:29:18;;;;;;;35.88;34.17;;;10.40;68.70;;;;;;5057301;28;20487;-81
2023/03/18 08:31:43;;;;;;;37.97;36.05;;;10.50;67.90;;;;;;5066135;28;20051;-81
2023/03/18 08:34:09;;;;;;;37.08;35.08;;;10.60;69.10;;;;;;5058212;28;20446;-79
2023/03/18 08:36:35;;;;;;;37.15;35.22;;;10.70;68.10;;;;;;5052352;28;20045;-79
2023/03/18 08:39:02;;;;;;;39.40;37.60;;;11.00;67.30;;;;;;5055398;28;20021;-81
2023/03/18 08:41:28;;;;;;;40.97;38.88;;;11.20;66.50;;;;;;5054387;28;20043;-78
2023/03/18 08:43:56;;;;;;;37.97;36.38;;;11.40;67.30;;;;;;5056311;28;20345;-79
2023/03/18 08:46:22;;;;;;;38.45;36.75;;;11.30;65.40;;;;;;5051257;28;20030;-79
2023/03/18 08:48:48;;;;;;;34.25;32.65;;;11.50;66.30;;;;;;5059673;28;20029;-82
2023/03/18 08:51:15;;;;;;;32.42;30.77;;;11.60;62.60;;;;;;5049505;28;20025;-78
2023/03/18 08:53:41;;;;;;;37.42;35.75;;;11.60;63.40;;;;;;5055389;28;20370;-83
2023/03/18 08:56:07;;;;;;;29.55;27.98;;;11.70;61.50;;;;;;5048364;28;20040;-80
2023/03/18 08:58:33;;;;;;;28.33;27.13;;;11.90;60.70;;;;;;5052212;28;20128;-78
2023/03/18 09:01:01;;;;;;;26.70;25.50;;;12.00;59.10;;;;;;5047996;28;20064;-80
2023/03/18 09:03:27;;;;;;;24.88;23.67;;;12.20;57.40;;;;;;5055276;28;20035;-83
2023/03/18 09:06:03;;;;;;;27.55;26.35;;;12.30;55.00;;;;;;5050849;28;20143;-79
2023/03/18 09:08:29;;;;;;;26.42;25.23;;;12.50;57.30;;;;;;5054520;28;20020;-82
2023/03/18 09:10:57;;;;;;;26.40;25.05;;;12.40;53.80;;;;;;5050648;28;20055;-79
2023/03/18 09:13:23;;;;;;;25.35;24.23;;;12.70;56.40;;;;;;5053090;28;20021;-77
2023/03/18 09:15:48;;;;;;;25.58;24.38;;;13.00;55.00;;;;;;5051042;28;20025;-77
2023/03/18 09:18:17;;;;;;;27.13;25.73;;;13.20;54.40;;;;;;5053937;28;20119;-76
2023/03/18 09:20:44;;;;;;;28.02;26.83;;;13.20;53.20;;;;;;5049506;28;20045;-78
2023/03/18 09:23:11;;;;;;;26.75;25.58;;;13.20;53.40;;;;;;5052173;28;20029;-75
2023/03/18 09:25:38;;;;;;;29.80;28.35;;;13.40;51.50;;;;;;5055707;28;20450;-79
2023/03/18 09:28:04;;;;;;;27.95;26.63;;;13.60;54.00;;;;;;5053857;28;20481;-81
2023/03/18 09:30:30;;;;;;;29.33;28.13;;;13.90;52.60;;;;;;5077856;28;20099;-75
2023/03/18 09:32:56;;;;;;;27.33;26.13;;;14.10;51.50;;;;;;5054874;28;20028;-82
2023/03/18 09:35:23;;;;;;;31.70;30.40;;;14.10;51.20;;;;;;5056265;28;20102;-79
2023/03/18 09:37:49;;;;;;;31.55;30.23;;;14.30;51.20;;;;;;5057420;28;20502;-77
2023/03/18 09:40:27;;;;;;;31.55;29.95;;;14.50;50.70;;;;;;5052648;28;20025;-81
2023/03/18 09:43:12;;;;;;;29.25;27.88;;;14.50;49.10;;;;;;5072295;28;20029;-77
2023/03/18 09:45:54;;;;;;;29.17;27.98;;;14.70;50.60;;;;;;5070084;28;20111;-77
2023/03/18 09:48:46;;;;;;;24.85;23.75;;;14.80;48.60;;;;;;5054770;28;20434;-79
2023/03/18 09:51:23;;;;;;;28.27;26.98;;;14.90;47.70;;;;;;5049072;28;20029;-76
2023/03/18 09:53:58;;;;;;;25.48;24.38;;;15.00;47.30;;;;;;5053424;28;20040;-80
2023/03/18 09:56:30;;;;;;;31.42;29.92;;;14.70;47.80;;;;;;5055832;28;20030;-79
2023/03/18 09:59:30;;;;;;;31.80;30.45;;;14.90;48.00;;;;;;5056833;28;20033;-77
2023/03/18 10:01:58;;;;;;;26.25;25.02;;;15.10;46.30;;;;;;5053125;28;20029;-78
2023/03/18 10:04:37;;;;;;;29.55;28.27;;;15.40;46.10;;;;;;5048488;28;20029;-76
2023/03/18 10:07:11;;;;;;;34.58;32.95;;;15.40;45.40;;;;;;5053005;28;20021;-76
2023/03/18 10:09:46;;;;;;;33.97;32.42;;;15.60;47.00;;;;;;5051649;28;20490;-79
2023/03/18 10:12:24;;;;;;;33.85;32.25;;;15.70;46.10;;;;;;5051946;28;20108;-79
2023/03/18 10:15:30;;;;;;;26.83;25.50;;;15.90;44.40;;;;;;5040855;28;20033;-78
2023/03/18 10:18:14;;;;;;;26.42;25.23;;;15.80;43.90;;;;;;5052208;28;20071;-80
2023/03/18 10:20:56;;;;;;;30.08;28.73;;;15.50;44.50;;;;;;5053083;28;20106;-78
2023/03/18 10:23:52;;;;;;;27.10;25.80;;;15.50;45.20;;;;;;5053805;28;20045;-80
2023/03/18 10:26:33;;;;;;;26.05;24.95;;;15.60;44.70;;;;;;5047328;28;20035;-79
2023/03/18 10:29:12;;;;;;;28.50;26.70;;;15.70;45.10;;;;;;5053882;28;20116;-79
2023/03/18 10:31:56;;;;;;;29.38;28.15;;;15.80;43.90;;;;;;5052000;28;20139;-79
2023/03/18 10:34:28;;;;;;;28.70;27.38;;;16.10;44.10;;;;;;5056549;28;20021;-80
2023/03/18 10:37:02;;;;;;;29.92;28.08;;;16.30;42.20;;;;;;5054532;28;20041;-78
2023/03/18 10:39:29;;;;;;;28.10;26.90;;;16.30;41.00;;;;;;5056532;28;20021;-78
2023/03/18 10:42:00;;;;;;;38.15;36.60;;;16.30;43.00;;;;;;5056196;28;21348;-77
2023/03/18 10:44:40;;;;;;;40.20;38.30;;;16.40;42.00;;;;;;5058983;28;20043;-80
2023/03/18 10:47:20;;;;;;;41.00;39.30;;;16.30;42.20;;;;;;5052218;28;20488;-77
2023/03/18 10:50:18;;;;;;;36.10;34.60;;;16.60;42.10;;;;;;5053741;28;20044;-77
2023/03/18 10:52:50;;;;;;;35.50;34.00;;;16.70;42.50;;;;;;5050011;28;20046;-77
2023/03/18 10:55:21;;;;;;;35.22;33.83;;;17.00;42.00;;;;;;5057008;28;20028;-77
2023/03/18 10:57:47;;;;;;;31.20;29.80;;;16.90;42.00;;;;;;5062892;28;20021;-76
2023/03/18 11:00:25;;;;;;;30.35;28.88;;;17.70;38.80;;;;;;5061792;28;20203;-80
2023/03/18 11:02:51;;;;;;;36.65;34.85;;;17.80;37.70;;;;;;5054824;28;20037;-77
2023/03/18 11:05:17;;;;;;;39.20;37.50;;;18.50;35.10;;;;;;5058103;28;20040;-78
2023/03/18 11:07:59;;;;;;;40.72;39.05;;;18.90;35.00;;;;;;5053953;28;20029;-78
2023/03/18 11:10:29;;;;;;;23.58;22.35;;;18.70;35.70;;;;;;5054776;28;20025;-77
2023/03/18 11:13:01;;;;;;;21.55;20.38;;;18.70;33.10;;;;;;5059883;28;20028;-77
2023/03/18 11:15:28;;;;;;;30.52;29.13;;;19.20;32.50;;;;;;5048779;28;20037;-77
2023/03/18 11:17:59;;;;;;;29.95;28.65;;;19.70;32.20;;;;;;5055034;28;20052;-76
2023/03/18 11:20:46;;;;;;;21.63;20.63;;;20.80;30.50;;;;;;5054950;28;20052;-75
2023/03/18 11:23:19;;;;;;;20.85;19.90;;;20.90;31.10;;;;;;5060813;28;20033;-75
2023/03/18 11:25:47;;;;;;;20.42;19.38;;;20.90;31.80;;;;;;5063322;28;20421;-74
2023/03/18 11:28:22;;;;;;;23.80;22.67;;;20.20;32.10;;;;;;5054968;28;20021;-74
2023/03/18 11:30:55;;;;;;;27.65;26.10;;;19.20;32.30;;;;;;5060282;28;20029;-75
2023/03/18 11:33:25;;;;;;;33.28;31.77;;;18.80;35.10;;;;;;5065606;28;20061;-74
2023/03/18 11:35:59;;;;;;;30.85;29.35;;;18.60;35.90;;;;;;5063399;28;20037;-76
2023/03/18 11:38:27;;;;;;;43.47;41.72;;;18.50;34.60;;;;;;5063859;28;20736;-76
2023/03/18 11:41:15;;;;;;;45.90;44.00;;;18.50;36.20;;;;;;5058295;28;20391;-76
2023/03/18 11:44:01;;;;;;;48.67;46.75;;;18.50;35.00;;;;;;5058024;28;20036;-77
2023/03/18 11:46:31;;;;;;;47.00;45.03;;;19.30;34.50;;;;;;5054050;28;20036;-75
2023/03/18 11:48:58;;;;;;;40.50;38.70;;;19.70;31.10;;;;;;5054676;28;20380;-75
2023/03/18 11:51:30;;;;;;;32.85;31.45;;;20.30;33.60;;;;;;5059903;28;20438;-73
2023/03/18 11:53:59;;;;;;;33.17;31.65;;;20.70;30.80;;;;;;5057184;28;20036;-73
2023/03/18 11:56:38;;;;;;;27.63;26.35;;;21.10;31.90;;;;;;5066562;28;20413;-73
2023/03/18 11:59:18;;;;;;;16.77;15.88;;;21.50;30.70;;;;;;5059317;28;20024;-75
2023/03/18 12:02:09;;;;;;;13.88;13.07;;;21.70;29.90;;;;;;5050615;28;20032;-73
2023/03/18 12:04:50;;;;;;;15.48;14.60;;;22.00;29.20;;;;;;5059709;28;20029;-73
2023/03/18 12:07:46;;;;;;;14.88;13.98;;;22.40;29.10;;;;;;5051912;28;20029;-73
2023/03/18 12:10:23;;;;;;;16.33;15.43;;;21.30;30.50;;;;;;5062441;28;20024;-74
2023/03/18 12:13:15;;;;;;;16.38;15.40;;;21.60;29.30;;;;;;5054122;28;20055;-74
2023/03/18 12:16:02;;;;;;;18.85;17.92;;;21.70;29.40;;;;;;5060923;28;20074;-73
2023/03/18 12:18:56;;;;;;;26.58;25.38;;;22.30;29.10;;;;;;5060231;28;20039;-74
2023/03/18 12:22:00;;;;;;;24.70;23.50;;;21.90;29.00;;;;;;5060130;28;20041;-73
2023/03/18 12:24:45;;;;;;;23.83;22.38;;;22.90;28.50;;;;;;5046406;28;20029;-73
2023/03/18 12:27:43;;;;;;;17.90;16.92;;;23.00;27.60;;;;;;5056652;28;20048;-73
2023/03/18 12:30:31;;;;;;;18.85;17.85;;;23.50;27.80;;;;;;5051944;28;20409;-74
2023/03/18 12:33:12;;;;;;;28.55;27.25;;;22.60;28.80;;;;;;5052229;28;20028;-76
2023/03/18 12:36:07;;;;;;;32.25;30.88;;;23.10;26.70;;;;;;5056108;28;20037;-74
2023/03/18 12:38:52;;;;;;;44.55;42.60;;;24.10;26.40;;;;;;5054555;28;20036;-74
2023/03/18 12:41:24;;;;;;;62.80;60.40;;;24.50;25.30;;;;;;5057577;28;20037;-74
2023/03/18 12:44:18;;;;;;;54.05;51.85;;;25.40;23.70;;;;;;5076144;28;20546;-74